LA3LJA-1 Osen NO current weather conditions

sailwx.info

Wind from 015 at 10 knots gusting 16

Air temperature 10.0° C
Dewpoint 8.1° C

Last reported at 2020-Sep-25 12:04 UTC.
Time now 2020-Sep-25 12:40 UTC

Location: N 64°20' E 010°25'.
View on Google Maps.

See reports from other nearby stations

  
Tides and Currents Weather Stations Pressure Air Temp Water Temp Dewpoint Dewpoint Depression Visibility Wind Speed Wind Dir Waves Ship Positions
date/time (UTC)wind fromknots sea level pressurealtimeterstation pressurevisibilityair tempwater tempwave heightnotes
2020-Sep-25 12:04 015 10 gusting 16 10.0
2020-Sep-25 11:54 016 13 gusting 21 10.0
2020-Sep-25 11:44 023 13 gusting 20 10.0
2020-Sep-25 11:34 022 15 gusting 22 10.0
2020-Sep-25 11:24 022 13 gusting 22 9.4
2020-Sep-25 11:14 017 11 gusting 19 9.4
2020-Sep-25 11:04 021 14 gusting 28 9.4
2020-Sep-25 10:54 019 11 gusting 21 9.4
2020-Sep-25 10:44 022 15 gusting 26 9.4
2020-Sep-25 10:34 019 14 gusting 21 9.4
2020-Sep-25 10:24 017 16 gusting 28 9.4
2020-Sep-25 10:14 019 18 gusting 32 9.4
2020-Sep-25 10:04 023 15 gusting 25 9.4
2020-Sep-25 09:54 027 15 gusting 26 9.4
2020-Sep-25 09:44 028 18 gusting 29 9.4
2020-Sep-25 09:34 016 19 gusting 33 8.9
2020-Sep-25 09:24 003 17 gusting 30 8.9
2020-Sep-25 09:14 020 19 gusting 33 8.3
2020-Sep-25 09:04 006 20 gusting 35 8.9
2020-Sep-25 08:54 027 20 gusting 32 8.9
2020-Sep-25 08:44 021 21 gusting 35 8.3
2020-Sep-25 08:34 016 21 gusting 35 8.3
2020-Sep-25 08:24 022 23 gusting 38 8.3
2020-Sep-25 08:14 011 25 gusting 40 8.3
2020-Sep-25 08:04 007 26 gusting 44 8.9
2020-Sep-25 07:54 008 25 gusting 39 8.3
2020-Sep-25 07:44 003 25 gusting 44 8.9
2020-Sep-25 07:34 005 26 gusting 43 8.9
2020-Sep-25 07:24 004 28 gusting 46 8.3
2020-Sep-25 07:14 009 27 gusting 46 8.3
2020-Sep-25 07:04 014 27 gusting 46 8.3
2020-Sep-25 06:54 011 32 gusting 46 8.9
2020-Sep-25 06:44 005 33 gusting 52 8.9
2020-Sep-25 06:34 004 33 gusting 48 8.3
2020-Sep-25 06:24 006 34 gusting 46 8.3
2020-Sep-25 06:14 001 35 gusting 46 8.3
2020-Sep-25 06:04 003 37 gusting 52 8.9
2020-Sep-25 05:54 355 36 gusting 48 8.9
2020-Sep-25 05:44 359 37 gusting 52 9.4
2020-Sep-25 05:34 004 36 gusting 51 9.4
2020-Sep-25 05:24 354 33 gusting 42 10.0
2020-Sep-25 05:14 352 30 gusting 41 10.6
2020-Sep-25 05:04 345 25 gusting 33 11.1
2020-Sep-25 04:54 322 21 gusting 29 11.1
2020-Sep-25 04:44 316 19 gusting 31 11.1
2020-Sep-25 04:34 259 26 gusting 35 10.6
2020-Sep-25 04:24 255 26 gusting 39 10.6
2020-Sep-25 04:14 230 26 gusting 38 10.0
2020-Sep-25 04:04 239 25 gusting 36 10.0
2020-Sep-25 03:54 232 25 gusting 39 10.0
2020-Sep-25 03:44 238 26 gusting 39 10.0
2020-Sep-25 03:34 231 26 gusting 42 10.0
2020-Sep-25 03:24 239 25 gusting 35 10.0
2020-Sep-25 03:14 227 25 gusting 39 10.0
2020-Sep-25 03:04 229 24 gusting 35 10.0
2020-Sep-25 02:54 219 23 gusting 39 10.0
2020-Sep-25 02:44 222 22 gusting 36 10.0
2020-Sep-25 02:34 230 20 gusting 33 10.6
2020-Sep-25 02:24 227 23 gusting 35 10.6
2020-Sep-25 02:14 228 27 gusting 42 10.6
2020-Sep-25 02:04 236 26 gusting 42 10.6
2020-Sep-25 01:54 231 24 gusting 35 11.1
2020-Sep-25 01:44 232 23 gusting 38 11.1
2020-Sep-25 01:34 233 24 gusting 35 11.1
2020-Sep-25 01:24 232 23 gusting 36 11.7
2020-Sep-25 01:14 240 23 gusting 38 11.7
2020-Sep-25 01:04 247 18 gusting 26 12.2
2020-Sep-25 00:54 229 15 gusting 28 12.2
2020-Sep-25 00:44 233 13 gusting 23 12.2
2020-Sep-25 00:34 225 14 gusting 22 12.2
2020-Sep-25 00:24 231 17 gusting 26 12.2
2020-Sep-25 00:14 219 14 gusting 22 12.8
2020-Sep-25 00:04 228 15 gusting 25 12.8
2020-Sep-24 23:54 248 13 gusting 22 12.2
2020-Sep-24 23:44 239 14 gusting 19 12.2
2020-Sep-24 23:34 251 14 gusting 23 12.2
2020-Sep-24 23:24 261 13 gusting 18 12.2
2020-Sep-24 23:14 264 15 gusting 23 12.8
2020-Sep-24 23:04 274 18 gusting 25 12.8
2020-Sep-24 22:54 267 16 gusting 23 13.9
2020-Sep-24 22:44 205 17 gusting 28 15.0
2020-Sep-24 22:34 189 22 gusting 32 15.0
2020-Sep-24 22:24 185 19 gusting 27 15.0
2020-Sep-24 22:14 195 18 gusting 26 14.4
2020-Sep-24 22:04 188 17 gusting 24 14.4
2020-Sep-24 21:54 186 18 gusting 26 15.0
2020-Sep-24 21:44 177 20 gusting 30 15.0
2020-Sep-24 21:34 176 21 gusting 32 15.0
2020-Sep-24 21:24 183 23 gusting 32 15.0
2020-Sep-24 21:14 183 24 gusting 39 15.0
2020-Sep-24 21:04 183 19 gusting 30 15.0
2020-Sep-24 20:54 177 19 gusting 30 14.4
2020-Sep-24 20:44 174 21 gusting 30 15.0
2020-Sep-24 20:34 178 20 gusting 33 15.0
2020-Sep-24 20:24 183 22 gusting 30 15.0
2020-Sep-24 20:14 176 22 gusting 33 15.0
2020-Sep-24 20:04 179 22 gusting 33 15.0
2020-Sep-24 19:54 181 22 gusting 36 15.0
2020-Sep-24 19:44 176 23 gusting 39 15.6
2020-Sep-24 19:34 181 24 gusting 37 15.6
2020-Sep-24 19:24 179 23 gusting 33 15.0
2020-Sep-24 19:14 181 23 gusting 33 15.6
2020-Sep-24 19:04 181 23 gusting 33 15.6
2020-Sep-24 18:54 179 26 gusting 39 15.6
2020-Sep-24 18:44 179 25 gusting 39 15.6
2020-Sep-24 18:34 175 25 gusting 36 15.6
2020-Sep-24 18:24 177 26 gusting 41 15.6
2020-Sep-24 18:14 177 24 gusting 33 15.6
2020-Sep-24 18:04 172 26 gusting 34 15.6
2020-Sep-24 17:54 161 22 gusting 36 15.0
2020-Sep-24 17:44 156 22 gusting 31 14.4
2020-Sep-24 17:34 152 25 gusting 33 14.4
2020-Sep-24 17:24 159 20 gusting 31 14.4
2020-Sep-24 17:14 150 22 gusting 31 14.4
2020-Sep-24 17:04 155 25 gusting 33 13.9
2020-Sep-24 16:54 154 26 gusting 39 13.9
2020-Sep-24 16:44 149 25 gusting 35 13.9
2020-Sep-24 16:34 147 27 gusting 39 13.9
2020-Sep-24 16:24 150 29 gusting 42 13.3
2020-Sep-24 16:14 144 31 gusting 45 13.3
2020-Sep-24 16:04 146 32 gusting 43 13.3
2020-Sep-24 15:54 144 30 gusting 45 12.8
2020-Sep-24 15:44 145 29 gusting 46 12.8
2020-Sep-24 15:34 144 30 gusting 43 12.2
2020-Sep-24 15:24 150 30 gusting 45 12.2
2020-Sep-24 15:14 150 32 gusting 46 11.7
2020-Sep-24 15:04 148 25 gusting 43 11.7
2020-Sep-24 14:54 138 11 gusting 25 11.1
2020-Sep-24 14:44 146 11 gusting 23 10.6
2020-Sep-24 14:34 140 9 gusting 22 10.6
2020-Sep-24 14:24 138 13 gusting 29 10.0
2020-Sep-24 14:14 129 13 gusting 26 10.0
2020-Sep-24 14:04 123 14 gusting 31 9.4
2020-Sep-24 13:54 114 14 gusting 31 9.4
2020-Sep-24 13:44 114 13 gusting 29 9.4
2020-Sep-24 13:34 109 10 gusting 26 8.9
2020-Sep-24 13:24 117 11 gusting 26 8.9
2020-Sep-24 13:04 100 13 gusting 29 8.3
2020-Sep-24 12:54 105 11 gusting 29 8.3
2020-Sep-24 12:44 089 10 gusting 25 8.3
2020-Sep-24 12:34 096 12 gusting 25 8.3
2020-Sep-24 12:24 103 13 gusting 29 8.3
2020-Sep-24 12:14 106 7 gusting 21 7.8
2020-Sep-24 12:04 076 4 gusting 18 7.8
2020-Sep-24 11:54 029 5 gusting 11 7.8
2020-Sep-24 11:44 081 5 gusting 12 7.8
2020-Sep-24 11:34 079 6 gusting 15 7.8
2020-Sep-24 11:24 102 5 gusting 15 7.8
2020-Sep-24 11:14 079 5 gusting 12 7.8
2020-Sep-24 11:04 056 6 gusting 12 7.8
2020-Sep-24 10:54 067 5 gusting 12 7.8
2020-Sep-24 10:44 090 6 gusting 18 7.2
2020-Sep-24 10:34 060 6 gusting 17 7.2
2020-Sep-24 10:24 045 8 gusting 28 7.2
2020-Sep-24 10:14 084 5 gusting 15 7.2
2020-Sep-24 10:04 076 8 gusting 16 7.2
2020-Sep-24 09:54 067 7 gusting 23 6.7
2020-Sep-24 09:44 080 8 gusting 19 6.7
2020-Sep-24 09:34 089 8 gusting 19 6.7
2020-Sep-24 09:24 079 10 gusting 24 6.7
2020-Sep-24 09:14 085 10 gusting 23 6.7
2020-Sep-24 09:04 088 10 gusting 25 6.7
2020-Sep-24 08:54 103 12 gusting 25 6.7
2020-Sep-24 08:44 099 13 gusting 26 7.2
2020-Sep-24 08:34 098 13 gusting 26 7.2
2020-Sep-24 08:24 107 12 gusting 28 7.2
2020-Sep-24 08:14 114 13 gusting 26 7.2
2020-Sep-24 08:04 106 13 gusting 25 7.2
2020-Sep-24 07:54 102 12 gusting 23 7.2
2020-Sep-24 07:44 108 13 gusting 28 7.2
2020-Sep-24 07:34 114 13 gusting 26 7.2
2020-Sep-24 07:24 130 10 gusting 21 7.2
2020-Sep-24 07:14 124 12 gusting 25 6.7
2020-Sep-24 07:04 139 15 gusting 28 6.7
2020-Sep-24 06:54 135 16 gusting 31 7.2
2020-Sep-24 06:44 145 19 gusting 32 7.2
2020-Sep-24 06:34 140 16 gusting 25 7.8
2020-Sep-24 06:24 138 11 gusting 21 7.8
2020-Sep-24 06:14 129 11 gusting 24 8.3
2020-Sep-24 06:04 136 6 gusting 21 7.8
2020-Sep-24 05:54 082 4 gusting 10 7.8
2020-Sep-24 05:44 070 5 gusting 11 7.8
2020-Sep-24 05:34 082 6 gusting 11 7.8
2020-Sep-24 05:24 101 6 gusting 11 7.8
2020-Sep-24 05:14 124 4 gusting 8 7.8
2020-Sep-24 05:04 112 1 gusting 5 7.8
2020-Sep-24 04:54 114 2 gusting 7 7.8
2020-Sep-24 04:44 098 6 gusting 11 7.8
2020-Sep-24 04:34 083 5 gusting 10 7.8
2020-Sep-24 04:24 088 5 gusting 10 7.8
2020-Sep-24 04:14 092 7 gusting 13 7.8
2020-Sep-24 04:04 079 5 gusting 9 7.8
2020-Sep-24 03:54 082 4 gusting 8 7.8
2020-Sep-24 03:44 082 4 gusting 8 7.8
2020-Sep-24 03:34 091 5 gusting 8 7.8
2020-Sep-24 03:24 097 5 gusting 8 7.8
2020-Sep-24 03:14 085 4 gusting 8 7.8
2020-Sep-24 03:04 099 3 gusting 6 7.8
2020-Sep-24 02:54 102 4 gusting 7 7.8
2020-Sep-24 02:44 105 4 gusting 7 7.8
2020-Sep-24 02:34 096 4 gusting 6 7.8
2020-Sep-24 02:24 089 4 gusting 8 7.8
2020-Sep-24 02:14 083 4 gusting 9 7.8
2020-Sep-24 02:04 080 4 gusting 7 7.8
2020-Sep-24 01:54 083 5 gusting 12 7.8
2020-Sep-24 01:44 082 5 gusting 8 7.8
2020-Sep-24 01:34 092 5 gusting 8 7.8
2020-Sep-24 01:24 092 5 gusting 9 7.8
2020-Sep-24 01:14 071 4 gusting 9 7.2
2020-Sep-24 01:04 073 4 gusting 9 7.2
2020-Sep-24 00:54 084 3 gusting 5 7.2
2020-Sep-24 00:44 084 3 gusting 5 7.2
2020-Sep-24 00:34 084 4 gusting 6 7.2
2020-Sep-24 00:24 075 3 gusting 6 6.7
2020-Sep-24 00:14 064 2 gusting 3 6.7
2020-Sep-24 00:04 047 1 gusting 3 6.7
2020-Sep-23 23:54 044 0 gusting 1 6.7
2020-Sep-23 23:44 044 1 gusting 2 7.2
2020-Sep-23 23:34 044 0 gusting 1 7.2
2020-Sep-23 23:24 044 0 gusting 1 7.2
2020-Sep-23 23:14 044 0 gusting 1 7.2
2020-Sep-23 23:04 044 0 gusting 2 7.2
2020-Sep-23 22:54 044 1 gusting 2 7.2
2020-Sep-23 22:44 044 2 gusting 2 7.8
2020-Sep-23 22:34 044 1 gusting 2 7.8
2020-Sep-23 22:24 044 1 gusting 2 8.3
2020-Sep-23 22:14 044 1 gusting 2 8.3
2020-Sep-23 22:04 044 1 gusting 3 8.3
2020-Sep-23 21:54 044 2 gusting 6 8.9
2020-Sep-23 21:44 048 3 gusting 6 8.3
2020-Sep-23 21:34 064 3 gusting 6 8.3
2020-Sep-23 21:24 064 3 gusting 6 8.3
2020-Sep-23 21:14 059 4 gusting 6 8.3
2020-Sep-23 21:04 067 3 gusting 6 8.3
2020-Sep-23 20:54 062 4 gusting 8 8.3
2020-Sep-23 20:44 047 4 gusting 8 8.9
2020-Sep-23 20:34 050 6 gusting 9 8.9
2020-Sep-23 20:24 044 6 gusting 11 8.9
2020-Sep-23 20:14 046 6 gusting 8 8.9
2020-Sep-23 20:04 027 6 gusting 10 8.9
2020-Sep-23 19:54 028 8 gusting 13 8.9
2020-Sep-23 19:44 023 8 gusting 13 8.9
2020-Sep-23 19:34 016 7 gusting 13 8.9
2020-Sep-23 19:24 031 8 gusting 13 8.9
2020-Sep-23 19:14 021 8 gusting 13 8.9
2020-Sep-23 19:04 024 3 gusting 6 8.9
2020-Sep-23 18:54 302 6 gusting 17 9.4
2020-Sep-23 18:44 345 12 gusting 18 9.4
2020-Sep-23 18:34 018 9 gusting 13 9.4
2020-Sep-23 18:24 018 10 gusting 15 9.4
2020-Sep-23 18:14 010 11 gusting 15 9.4
2020-Sep-23 18:04 350 10 gusting 17 9.4
2020-Sep-23 17:54 005 13 gusting 18 9.4
2020-Sep-23 17:44 007 13 gusting 22 9.4
2020-Sep-23 17:34 006 12 gusting 19 10.0
2020-Sep-23 17:24 352 11 gusting 15 9.4
2020-Sep-23 17:14 358 12 gusting 17 9.4
2020-Sep-23 17:04 013 10 gusting 17 9.4
2020-Sep-23 16:54 003 13 gusting 21 10.0
2020-Sep-23 16:44 355 13 gusting 17 10.0
2020-Sep-23 16:34 358 15 gusting 20 10.0
2020-Sep-23 16:24 351 15 gusting 20 10.0
2020-Sep-23 16:14 342 14 gusting 19 10.0
2020-Sep-23 16:04 10.0
2020-Sep-23 15:54 359 18 gusting 23 10.0
2020-Sep-23 15:44 353 19 gusting 23 10.0
2020-Sep-23 15:34 331 17 gusting 22 10.0
2020-Sep-23 15:24 346 20 gusting 26 10.6
2020-Sep-23 15:14 348 19 gusting 26 10.6
2020-Sep-23 15:04 351 19 gusting 26 10.6
2020-Sep-23 14:54 345 18 gusting 23 11.1
2020-Sep-23 14:44 331 19 gusting 25 11.1
2020-Sep-23 14:34 341 19 gusting 26 11.1
2020-Sep-23 14:24 320 21 gusting 28 11.1
2020-Sep-23 14:14 319 21 gusting 29 11.1
2020-Sep-23 14:04 338 22 gusting 31 11.1
2020-Sep-23 13:54 329 25 gusting 33 11.1
2020-Sep-23 13:44 331 26 gusting 33 11.1
2020-Sep-23 13:34 321 26 gusting 35 11.1
2020-Sep-23 13:24 319 27 gusting 34 11.1
2020-Sep-23 13:14 314 26 gusting 34 11.1
2020-Sep-23 13:04 319 26 gusting 35 11.1
2020-Sep-23 12:54 307 21 gusting 30 11.1
2020-Sep-23 12:44 308 21 gusting 31 11.1
2020-Sep-23 12:34 315 23 gusting 33 11.1
2020-Sep-23 12:24 314 21 gusting 32 11.1
2020-Sep-23 12:14 307 23 gusting 33 11.1
2020-Sep-23 12:04 313 22 gusting 31 11.1